Kezdőlap
METAR-TAF:

METAR-TAF

Repülőterek :

Subic Bay, Fülöp-szigetek

földrajzi szélesség: 14-48N, földrajzi hosszúság: 120-16E, magasság: 18 m

Jelenlegi meteorológiai megfigyelések

A jelentés 55 perccel ezelõtt készült, 23:00 UTC
Kelet-északkeleti szél 8 kt
Hőmérséklet 27°C
Páratartalom 74%
Légköri nyomás 1011 hPa
Látótávolság 10 km, vagy több
Kevés felhő 2000 lábon

METAR: RPLB 192300Z 06008KT 9999 FEW020 27/22 Q1011 NOSIG RMK A2985

Idő: 07:55 (23:55 UTC)

Előrejelzés

A jelentés 55 perccel ezelõtt készült, 23:00 UTC
Az előrejelzés 20-én 00 óra UTC és 20-én 24 óra UTC között érvényes
Kelet-északkeleti szél 8 kt
Látótávolság 10 km, vagy több
Kevés felhő 2000 lábon
20-én 04 óra UTC és 20-én 06 óra UTC között fokozatosan kialakuló
Délnyugati szél 10 kt

TAF: RPLB 192300Z 2000/2024 06008KT 9999 FEW020 TX35/2004Z TN26/2020Z BECMG 2004/2006 22010KT

Meteorológiai megfigyelések és előrejelzések több, mint 4000 repülőtéren (METAR és TAF jelentéseket).

A térképen piros és sárga pontok jelzik az elérhető meteorológiai állomásokat.

Mozgassa az egeret a pont fölött, hogy megjelenjen az állomás neve.

Azután kattintson az időjárási megfigyelések és előrejelzések megtekintéséhez.

A térkép megváltoztatása: kattintson a fekete keresztel jelölt zöld gombra ráközelítéshez, a vonallal jelölt zöld gombra távolításhoz, vagy a zöld nyilakra a szomszédos térképek eléréséhez.


METAR-TAF: